Time;durP1;ratioP1;P1;durP2;ratioP2;P2;SDS_P1;SDS_P2;PMS_P1;PMS_P2;Temp;Humidity;BMP_temperature;BMP_pressure;BME280_temperature;BME280_humidity;BME280_pressure;Samples;Min_cycle;Max_cycle;Signal;HPM_P1;HPM_P2
2023/10/08 00:01:35;;;;;;;20.48;4.68;;;;;;;-146.27;76.54;81048.56;5025030;28;20030;-65
2023/10/08 00:04:04;;;;;;;16.88;5.32;;;;;;;-146.27;76.79;81122.84;5025841;28;20100;-65
2023/10/08 00:06:30;;;;;;;19.30;4.82;;;;;;;-146.27;76.62;81080.69;5028535;28;20029;-66
2023/10/08 00:08:59;;;;;;;19.88;5.07;;;;;;;-146.27;76.54;81034.50;5031737;28;20508;-65
2023/10/08 00:11:29;;;;;;;19.65;5.45;;;;;;;-146.27;76.75;81102.78;5030982;28;20044;-64
2023/10/08 00:13:56;;;;;;;30.40;5.13;;;;;;;-146.27;77.87;81134.91;5021403;28;20036;-65
2023/10/08 00:16:22;;;;;;;17.63;4.80;;;;;;;-146.27;77.55;81167.03;5028816;28;20057;-64
2023/10/08 00:18:50;;;;;;;21.92;5.60;;;;;;;-146.27;77.12;81112.81;5025031;28;20026;-65
2023/10/08 00:21:27;;;;;;;22.58;5.40;;;;;;;-146.27;77.22;81120.84;5024247;28;20139;-65
2023/10/08 00:23:55;;;;;;;20.70;4.88;;;;;;;-146.27;77.42;81118.84;5030624;28;20022;-65
2023/10/08 00:26:27;;;;;;;18.15;5.40;;;;;;;-146.27;77.44;81140.94;5022114;28;20021;-67
2023/10/08 00:28:56;;;;;;;16.50;4.88;;;;;;;-146.27;77.31;81132.91;5030188;28;20029;-67
2023/10/08 00:31:26;;;;;;;23.73;5.50;;;;;;;-146.27;76.94;81074.66;5031465;28;20640;-66
2023/10/08 00:33:52;;;;;;;19.30;5.55;;;;;;;-146.27;77.67;81167.03;5028251;28;20029;-67
2023/10/08 00:36:18;;;;;;;13.27;4.50;;;;;;;-146.27;77.15;81090.72;5029028;28;20030;-68
2023/10/08 00:38:45;;;;;;;25.90;5.90;;;;;;;-146.27;77.06;81114.81;5025162;28;20485;-65
2023/10/08 00:41:21;;;;;;;21.73;4.97;;;;;;;-146.27;77.20;81098.75;5029968;28;20115;-66
2023/10/08 00:43:47;;;;;;;23.48;5.22;;;;;;;-146.27;77.35;81159.00;5018910;28;20095;-67
2023/10/08 00:46:23;;;;;;;24.88;5.18;;;;;;;-146.27;77.05;81100.75;5030852;28;20029;-67
2023/10/08 00:48:56;;;;;;;21.90;5.63;;;;;;;-146.27;76.99;81090.72;5031868;28;20029;-67
2023/10/08 00:54:05;;;;;;;18.40;4.78;;;;;;;-146.27;77.33;81179.09;5030623;28;20042;-67
2023/10/08 00:59:44;;;;;;;27.33;5.07;;;;;;;-146.27;77.72;81183.09;5017827;28;20057;-67
2023/10/08 01:02:14;;;;;;;23.48;5.28;;;;;;;-146.27;77.74;81167.03;5024801;28;20087;-68
2023/10/08 01:04:43;;;;;;;19.23;5.20;;;;;;;-146.27;77.92;81167.03;5031367;28;20025;-67
2023/10/08 01:07:18;;;;;;;23.40;5.60;;;;;;;-146.27;77.89;81144.94;5029590;28;20037;-67
2023/10/08 01:09:49;;;;;;;30.58;6.43;;;;;;;-146.27;77.94;81136.91;5023023;28;20087;-67
2023/10/08 01:14:53;;;;;;;15.30;5.45;;;;;;;-146.27;78.19;81183.09;5028761;28;20057;-67
2023/10/08 01:17:24;;;;;;;21.20;5.68;;;;;;;-146.27;78.16;81161.00;5028934;28;20112;-67
2023/10/08 01:22:45;;;;;;;11.38;4.72;;;;;;;-146.27;78.58;81163.03;5021333;28;20103;-67
2023/10/08 01:25:11;;;;;;;23.20;6.20;;;;;;;-146.27;78.41;81191.13;5028608;28;20477;-67
2023/10/08 01:27:37;;;;;;;19.85;5.32;;;;;;;-146.27;78.64;81203.19;5032365;28;20770;-67
2023/10/08 01:30:17;;;;;;;18.70;5.40;;;;;;;-146.27;79.01;81199.16;5030080;28;20033;-67
2023/10/08 01:32:43;;;;;;;23.00;5.55;;;;;;;-146.27;78.99;81231.31;5016329;28;20084;-67
2023/10/08 01:35:22;;;;;;;22.48;6.20;;;;;;;-146.27;79.24;81219.25;5030497;28;20025;-67
2023/10/08 01:37:49;;;;;;;25.85;4.97;;;;;;;-146.27;79.10;81175.06;5031008;28;20465;-65
2023/10/08 01:40:14;;;;;;;19.85;6.28;;;;;;;-146.27;79.51;81225.28;5014998;28;20520;-65
2023/10/08 01:42:40;;;;;;;25.67;5.68;;;;;;;-146.27;79.56;81191.13;5026586;28;20063;-66
2023/10/08 01:45:09;;;;;;;20.50;5.65;;;;;;;-146.27;79.84;81227.28;5019032;28;20543;-64
2023/10/08 01:47:35;;;;;;;21.60;5.93;;;;;;;-146.27;79.67;81231.31;5028088;28;20081;-65
2023/10/08 01:50:06;;;;;;;20.52;5.35;;;;;;;-146.27;80.22;81233.31;5017816;28;20446;-65
2023/10/08 01:52:31;;;;;;;14.63;5.65;;;;;;;-146.27;80.10;81227.28;5017839;28;20057;-65
2023/10/08 01:54:57;;;;;;;19.13;5.90;;;;;;;-146.27;79.94;81221.25;5022557;28;20021;-64
2023/10/08 01:57:23;;;;;;;18.48;5.30;;;;;;;-146.27;80.12;81247.38;5024545;28;20061;-64
2023/10/08 01:59:48;;;;;;;24.67;7.38;;;;;;;-146.27;80.62;81241.34;5027796;28;20017;-65
2023/10/08 02:02:15;;;;;;;19.73;6.88;;;;;;;-146.27;80.42;81271.47;5029141;28;20033;-64
2023/10/08 02:04:41;;;;;;;28.90;6.95;;;;;;;-146.27;80.67;81259.41;5020331;28;20559;-65
2023/10/08 02:07:13;;;;;;;21.73;6.10;;;;;;;-146.27;80.78;81247.38;5030366;28;20041;-64
2023/10/08 02:09:41;;;;;;;31.58;6.72;;;;;;;-146.27;80.63;81231.31;5029924;28;20028;-65
2023/10/08 02:12:08;;;;;;;20.20;6.35;;;;;;;-146.27;80.70;81227.28;5018680;28;20039;-64
2023/10/08 02:14:35;;;;;;;19.20;5.40;;;;;;;-146.27;80.97;81267.44;5029981;28;20050;-64
2023/10/08 02:17:05;;;;;;;22.85;5.97;;;;;;;-146.27;81.17;81255.41;5025718;28;20569;-65
2023/10/08 02:19:32;;;;;;;17.05;5.75;;;;;;;-146.27;81.13;81251.38;5020604;28;20612;-64
2023/10/08 02:21:58;;;;;;;21.17;6.90;;;;;;;-146.27;81.30;81235.31;5024428;28;20104;-65
2023/10/08 02:24:24;;;;;;;21.65;5.47;;;;;;;-146.27;81.45;81265.44;5029867;28;20028;-65
2023/10/08 02:26:54;;;;;;;15.82;5.78;;;;;;;-146.27;81.18;81299.59;5027898;28;20462;-65
2023/10/08 02:29:20;;;;;;;20.92;6.30;;;;;;;-146.27;81.72;81317.66;5029240;28;20060;-64
2023/10/08 02:31:45;;;;;;;22.80;6.20;;;;;;;-146.27;82.03;81311.63;5024895;28;20494;-64
2023/10/08 02:34:12;;;;;;;18.25;5.95;;;;;;;-146.27;82.11;81315.66;5025578;28;20025;-64
2023/10/08 02:36:40;;;;;;;22.00;6.57;;;;;;;-146.27;82.32;81355.81;5030322;28;20064;-64
2023/10/08 02:39:27;;;;;;;26.52;7.07;;;;;;;-146.27;82.25;81355.81;5025674;28;20108;-64
2023/10/08 02:41:55;;;;;;;18.95;5.75;;;;;;;-146.27;82.61;81375.91;5021729;28;20048;-64
2023/10/08 02:44:20;;;;;;;20.98;6.43;;;;;;;-146.27;82.39;81355.81;5020400;28;20867;-64
2023/10/08 02:46:47;;;;;;;29.80;7.72;;;;;;;-146.27;82.56;81341.75;5021189;28;20029;-67
2023/10/08 02:49:19;;;;;;;21.50;6.57;;;;;;;-146.27;82.66;81339.75;5027226;28;20060;-67
2023/10/08 02:51:45;;;;;;;21.30;5.85;;;;;;;-146.27;82.81;81329.72;5027872;28;20052;-66
2023/10/08 02:54:22;;;;;;;20.00;7.55;;;;;;;-146.27;82.77;81412.03;5017985;28;20117;-67
2023/10/08 02:56:55;;;;;;;20.60;6.43;;;;;;;-146.27;82.78;81371.88;5020722;28;20033;-67
2023/10/08 02:59:24;;;;;;;15.60;5.72;;;;;;;-146.27;83.19;81395.97;5017488;28;20461;-67
2023/10/08 03:01:55;;;;;;;18.48;5.82;;;;;;;-146.27;82.96;81412.03;5012898;28;20057;-67
2023/10/08 03:04:22;;;;;;;14.80;5.50;;;;;;;-146.27;83.04;81416.06;5026463;28;20047;-67
2023/10/08 03:06:58;;;;;;;16.00;6.03;;;;;;;-146.27;82.84;81408.03;5029897;28;20022;-67
2023/10/08 03:09:25;;;;;;;19.58;6.85;;;;;;;-146.27;83.15;81460.25;5022797;28;20025;-66
2023/10/08 03:11:52;;;;;;;18.98;6.30;;;;;;;-146.27;83.23;81438.16;5028190;28;20032;-67
2023/10/08 03:14:26;;;;;;;19.00;6.50;;;;;;;-146.27;83.67;81482.34;5014082;28;20072;-65
2023/10/08 03:16:54;;;;;;;19.05;7.75;;;;;;;-146.27;83.82;81466.28;5016440;28;20044;-67
2023/10/08 03:19:22;;;;;;;17.92;5.78;;;;;;;-146.27;83.78;81452.22;5015008;28;20025;-67
2023/10/08 03:21:50;;;;;;;26.42;6.68;;;;;;;-146.27;83.52;81466.28;5027735;28;21610;-67
2023/10/08 03:25:14;;;;;;;26.60;7.03;;;;;;;-146.27;83.49;81452.22;5023663;28;20035;-67
2023/10/08 03:27:26;;;;;;;17.92;6.65;;;;;;;-146.27;83.77;81456.22;5025112;28;20526;-67
2023/10/08 03:29:54;;;;;;;20.45;7.10;;;;;;;-146.27;83.91;81472.28;5027785;28;20044;-67
2023/10/08 03:32:26;;;;;;;28.13;6.70;;;;;;;-146.27;84.39;81528.53;5025748;28;20143;-67
2023/10/08 03:34:54;;;;;;;20.50;6.22;;;;;;;-146.27;83.91;81530.53;5020062;28;20025;-67
2023/10/08 03:37:29;;;;;;;22.50;6.13;;;;;;;-146.27;84.19;81538.56;5023416;28;20113;-67
2023/10/08 03:40:02;;;;;;;20.33;6.32;;;;;;;-146.27;84.18;81512.47;5027245;28;20032;-67
2023/10/08 03:42:34;;;;;;;21.52;6.53;;;;;;;-146.27;84.16;81522.50;5030006;28;20131;-67
2023/10/08 03:45:09;;;;;;;18.27;6.50;;;;;;;-146.27;84.58;81540.56;5028122;28;20392;-67
2023/10/08 03:47:37;;;;;;;18.90;6.28;;;;;;;-146.27;84.69;81534.56;5015820;28;20021;-67
2023/10/08 03:50:07;;;;;;;16.88;6.18;;;;;;;-146.27;84.61;81558.66;5026016;28;20025;-67
2023/10/08 03:52:36;;;;;;;17.88;6.40;;;;;;;-146.27;84.72;81544.59;5020874;28;20125;-67
2023/10/08 03:55:06;;;;;;;17.05;6.47;;;;;;;-146.27;84.71;81532.53;5027765;28;20041;-67
2023/10/08 03:57:44;;;;;;;15.98;6.85;;;;;;;-146.27;84.64;81552.63;5026926;28;20025;-67
2023/10/08 04:00:18;;;;;;;22.13;6.75;;;;;;;-146.27;84.83;81542.59;5024295;28;20030;-67
2023/10/08 04:02:54;;;;;;;22.55;6.35;;;;;;;-146.27;84.84;81538.56;5024845;28;20428;-67
2023/10/08 04:05:27;;;;;;;19.58;6.80;;;;;;;-146.27;84.81;81536.56;5026867;28;20026;-67
2023/10/08 04:13:09;;;;;;;25.33;8.02;;;;;;;-146.27;85.16;81588.78;5030006;28;20041;-67
2023/10/08 04:15:40;;;;;;;23.55;7.30;;;;;;;-146.27;85.14;81580.75;5022361;28;20057;-67
2023/10/08 04:18:06;;;;;;;18.95;7.72;;;;;;;-146.27;85.15;81552.63;5020929;28;20056;-67
2023/10/08 04:23:20;;;;;;;18.17;6.47;;;;;;;-146.27;85.30;81590.78;5027972;28;20496;-67
2023/10/08 04:25:51;;;;;;;23.70;7.47;;;;;;;-146.27;85.24;81572.72;5019121;28;20026;-67
2023/10/08 04:28:20;;;;;;;21.27;7.72;;;;;;;-146.27;85.21;81580.75;5022628;28;20036;-67
2023/10/08 04:30:47;;;;;;;29.20;7.55;;;;;;;-146.27;85.40;81572.72;5024150;28;20064;-67
2023/10/08 04:33:13;;;;;;;19.88;6.93;;;;;;;-146.27;85.35;81596.81;5016858;28;20029;-67
2023/10/08 04:35:55;;;;;;;28.58;9.15;;;;;;;-146.27;85.53;81580.75;5028574;28;20029;-67
2023/10/08 04:38:23;;;;;;;24.98;7.75;;;;;;;-146.27;85.78;81592.78;5027167;28;20021;-67
2023/10/08 04:40:52;;;;;;;15.73;6.47;;;;;;;-146.27;85.53;81560.66;5023352;28;20366;-67
2023/10/08 04:43:25;;;;;;;18.73;8.50;;;;;;;-146.27;85.26;81596.81;5025144;28;20539;-67
2023/10/08 04:45:51;;;;;;;23.70;8.77;;;;;;;-146.27;85.51;81600.84;5018120;28;20082;-67
2023/10/08 04:48:20;;;;;;;28.67;7.80;;;;;;;-146.27;85.50;81620.91;5018560;28;20030;-67
2023/10/08 04:50:58;;;;;;;21.00;7.35;;;;;;;-146.27;85.49;81616.91;5022655;28;20060;-67
2023/10/08 04:53:36;;;;;;;20.92;7.18;;;;;;;-146.27;85.44;81612.88;5031065;28;20116;-67
2023/10/08 04:56:13;;;;;;;23.77;7.90;;;;;;;-146.27;85.88;81620.91;5031383;28;20025;-67
2023/10/08 04:58:40;;;;;;;27.98;8.10;;;;;;;-146.27;85.78;81622.91;5029498;28;20014;-67
2023/10/08 05:06:39;;;;;;;19.90;7.70;;;;;;;-146.27;85.62;81608.88;5021951;28;20066;-65
2023/10/08 05:09:12;;;;;;;18.65;7.90;;;;;;;-146.27;85.64;81641.00;5024420;28;20044;-65
2023/10/08 05:14:34;;;;;;;23.20;9.77;;;;;;;-146.27;86.18;81618.91;5018463;28;20054;-65
2023/10/08 05:17:03;;;;;;;24.30;9.13;;;;;;;-146.27;85.76;81697.22;5019862;28;20040;-65
2023/10/08 05:23:20;;;;;;;20.98;6.65;;;;;;;-146.27;85.26;81685.19;5028296;28;20502;-65
2023/10/08 05:30:41;;;;;;;21.20;6.40;;;;;;;-146.27;84.75;81731.38;5029123;28;20107;-65
2023/10/08 05:38:13;;;;;;;19.15;6.45;;;;;;;-146.27;84.84;81771.53;5030669;28;21282;-65
2023/10/08 05:49:01;;;;;;;31.38;6.10;;;;;;;-146.27;84.31;81741.41;5012547;28;20485;-64
2023/10/08 05:54:35;;;;;;;27.88;6.15;;;;;;;-146.27;84.24;81785.59;5030028;28;20100;-65
2023/10/08 06:00:21;;;;;;;32.70;5.68;;;;;;;-146.27;83.78;81777.56;5023648;28;20037;-65
2023/10/08 06:13:06;;;;;;;13.65;3.60;;;;;;;-146.27;83.25;81807.69;5029391;28;20360;-65
2023/10/08 06:18:26;;;;;;;22.45;4.38;;;;;;;-146.27;82.87;81829.78;5028240;28;20029;-65
2023/10/08 06:20:55;;;;;;;11.55;3.28;;;;;;;-146.27;83.20;81837.81;5027323;28;20472;-65
2023/10/08 06:23:22;;;;;;;10.82;3.33;;;;;;;-146.27;82.63;81829.78;5025452;28;20079;-65
2023/10/08 06:26:05;;;;;;;17.13;4.60;;;;;;;-146.27;82.47;81823.78;5029374;28;20171;-65
2023/10/08 06:28:34;;;;;;;11.82;3.90;;;;;;;-146.27;82.28;81811.72;5023350;28;20129;-65
2023/10/08 06:31:01;;;;;;;10.73;4.78;;;;;;;-146.27;82.96;81825.78;5028540;28;20087;-65
2023/10/08 06:33:30;;;;;;;15.30;4.13;;;;;;;-146.27;82.62;81849.88;5032279;28;20030;-65
2023/10/08 06:38:38;;;;;;;15.20;4.65;;;;;;;-146.27;82.82;81904.13;5026097;28;20511;-65
2023/10/08 06:41:09;;;;;;;18.83;5.10;;;;;;;-146.27;82.84;81894.06;5027518;28;20105;-64
2023/10/08 06:43:36;;;;;;;16.67;5.18;;;;;;;-146.27;82.74;81902.09;5022552;28;20028;-64
2023/10/08 06:46:02;;;;;;;20.65;6.63;;;;;;;-146.27;83.11;81934.25;5024579;28;20022;-65
2023/10/08 06:48:29;;;;;;;19.00;7.50;;;;;;;-146.27;83.22;81894.06;5021149;28;20082;-64
2023/10/08 06:50:58;;;;;;;29.27;8.15;;;;;;;-146.27;83.00;81900.09;5012840;28;20037;-65
2023/10/08 06:53:24;;;;;;;26.52;7.75;;;;;;;-146.27;83.18;81912.16;5018591;28;20026;-65
2023/10/08 06:55:56;;;;;;;31.80;8.02;;;;;;;-146.27;82.76;81932.22;5018273;28;20099;-64
2023/10/08 06:58:23;;;;;;;27.88;8.25;;;;;;;-146.27;82.82;81952.31;5020642;28;20135;-65
2023/10/08 07:00:49;;;;;;;25.30;7.57;;;;;;;-146.27;83.46;81962.34;5021481;28;20029;-65
2023/10/08 07:03:15;;;;;;;17.45;6.05;;;;;;;-146.27;83.05;81924.19;5014084;28;20032;-65
2023/10/08 07:05:53;;;;;;;22.45;6.30;;;;;;;-146.27;83.17;81936.25;5020210;28;20040;-64
2023/10/08 07:08:23;;;;;;;24.73;6.15;;;;;;;-146.27;82.11;81918.16;5019839;28;20025;-65
2023/10/08 07:10:50;;;;;;;18.83;6.13;;;;;;;-146.27;81.74;82014.59;5025349;28;20029;-65
2023/10/08 07:13:17;;;;;;;22.77;6.07;;;;;;;-146.27;82.18;82030.66;5023913;28;20029;-65
2023/10/08 07:15:44;;;;;;;23.73;6.25;;;;;;;-146.27;82.25;82004.53;5028923;28;20050;-64
2023/10/08 07:18:12;;;;;;;18.23;4.85;;;;;;;-146.27;82.06;82016.59;5026276;28;20032;-65
2023/10/08 07:20:41;;;;;;;17.13;4.50;;;;;;;-146.27;82.02;82038.69;5023645;28;20038;-65
2023/10/08 07:23:18;;;;;;;15.05;4.72;;;;;;;-146.27;82.36;82062.78;5010691;28;20053;-65
2023/10/08 07:25:51;;;;;;;27.45;5.25;;;;;;;-146.27;82.25;82070.81;5012030;28;20025;-66
2023/10/08 07:28:19;;;;;;;15.80;4.88;;;;;;;-146.27;82.58;82028.66;5021252;28;20033;-68
2023/10/08 07:30:45;;;;;;;17.63;4.80;;;;;;;-146.27;82.44;82020.59;5011531;28;20534;-67
2023/10/08 07:33:17;;;;;;;19.90;6.88;;;;;;;-146.27;81.71;82050.75;5017792;28;20060;-68
2023/10/08 07:35:57;;;;;;;22.02;5.10;;;;;;;-146.27;82.08;82058.78;5010729;28;20026;-67
2023/10/08 07:38:27;;;;;;;17.25;5.03;;;;;;;-146.27;82.47;82048.72;5013876;28;20048;-66
2023/10/08 07:40:55;;;;;;;14.80;5.03;;;;;;;-146.27;82.55;82022.63;5021924;28;20079;-67
2023/10/08 07:43:20;;;;;;;16.52;5.07;;;;;;;-146.27;83.01;81986.47;5024958;28;20396;-67
2023/10/08 07:45:46;;;;;;;12.55;4.30;;;;;;;-146.27;82.19;82022.63;5037393;28;20051;-67
2023/10/08 07:48:13;;;;;;;18.45;5.20;;;;;;;-146.27;81.65;82004.53;5030727;28;20063;-67
2023/10/08 07:50:46;;;;;;;11.80;4.50;;;;;;;-146.27;81.80;81992.50;5018955;28;20036;-67
2023/10/08 07:53:17;;;;;;;11.85;3.85;;;;;;;-146.27;81.41;82010.56;5026533;28;20045;-67
2023/10/08 07:55:45;;;;;;;21.73;4.72;;;;;;;-146.27;81.35;81988.47;5032904;28;20041;-67
2023/10/08 07:58:11;;;;;;;10.95;3.92;;;;;;;-146.27;81.34;82038.69;5024553;28;20026;-67
2023/10/08 08:00:38;;;;;;;13.45;3.90;;;;;;;-146.27;80.94;82002.53;5014984;28;20500;-67
2023/10/08 08:03:04;;;;;;;16.70;3.67;;;;;;;-146.27;81.30;82010.56;5013767;28;20036;-69
2023/10/08 08:05:31;;;;;;;13.75;3.70;;;;;;;-146.27;81.29;82014.59;5027714;28;20108;-68
2023/10/08 08:07:59;;;;;;;13.18;4.40;;;;;;;-146.27;80.78;81988.47;5027611;28;20080;-67
2023/10/08 08:10:25;;;;;;;20.58;4.28;;;;;;;-146.27;80.63;81970.41;5017074;28;20025;-67
2023/10/08 08:12:56;;;;;;;10.25;3.95;;;;;;;-146.27;80.57;82018.59;5011877;28;20076;-68
2023/10/08 08:15:22;;;;;;;15.20;4.90;;;;;;;-146.27;80.82;81966.38;5012271;28;20052;-68
2023/10/08 08:17:48;;;;;;;14.10;4.05;;;;;;;-146.27;80.81;81956.34;5029294;28;20029;-69
2023/10/08 08:20:22;;;;;;;11.95;4.45;;;;;;;-146.27;81.07;81968.38;5028456;28;20029;-68
2023/10/08 08:22:50;;;;;;;13.40;3.97;;;;;;;-146.27;80.04;81974.41;5032348;28;20032;-68
2023/10/08 08:25:26;;;;;;;13.20;3.58;;;;;;;-146.27;79.87;82018.59;5029860;28;20029;-68
2023/10/08 08:27:53;;;;;;;15.77;3.90;;;;;;;-146.27;79.66;81970.41;5030751;28;20037;-69
2023/10/08 08:30:19;;;;;;;10.18;3.45;;;;;;;-146.27;79.33;81994.50;5023211;28;20365;-69
2023/10/08 08:32:49;;;;;;;11.45;3.40;;;;;;;-146.27;79.44;81978.44;5013322;28;20391;-69
2023/10/08 08:35:17;;;;;;;10.93;3.72;;;;;;;-146.27;78.98;82010.56;5015799;28;20018;-68
2023/10/08 08:37:43;;;;;;;18.23;3.30;;;;;;;-146.27;79.07;82014.59;5014594;28;20038;-69
2023/10/08 08:40:17;;;;;;;9.27;2.60;;;;;;;-146.27;78.58;81982.44;5029432;28;20615;-69
2023/10/08 08:42:54;;;;;;;10.77;3.08;;;;;;;-146.27;78.77;81998.50;5020062;28;20043;-69
2023/10/08 08:45:22;;;;;;;11.25;2.80;;;;;;;-146.27;79.23;81974.41;5013544;28;20032;-69
2023/10/08 08:47:48;;;;;;;11.85;3.65;;;;;;;-146.27;78.62;82006.53;5026111;28;20401;-69
2023/10/08 08:50:13;;;;;;;5.68;2.33;;;;;;;-146.27;78.14;81964.38;5016730;28;20025;-69
2023/10/08 08:52:40;;;;;;;9.95;3.00;;;;;;;-146.27;77.77;82006.53;5028638;28;20160;-70
2023/10/08 08:55:14;;;;;;;14.77;2.88;;;;;;;-146.27;78.76;81986.47;5021718;28;20037;-69
2023/10/08 08:57:43;;;;;;;11.45;2.92;;;;;;;-146.27;78.67;81978.44;5018559;28;20392;-68
2023/10/08 09:00:12;;;;;;;8.32;2.80;;;;;;;-146.27;78.27;81942.28;5027656;28;20044;-69
2023/10/08 09:02:38;;;;;;;15.38;3.95;;;;;;;-146.27;77.68;81918.16;5025032;28;20033;-68
2023/10/08 09:05:24;;;;;;;14.07;3.50;;;;;;;-146.27;77.37;81930.22;5025423;28;20082;-69
2023/10/08 09:07:56;;;;;;;12.93;3.70;;;;;;;-146.27;77.50;81910.13;5009475;28;20033;-68
2023/10/08 09:10:29;;;;;;;7.70;2.97;;;;;;;-146.27;77.61;81853.91;5030145;28;20029;-68
2023/10/08 09:12:58;;;;;;;12.30;2.97;;;;;;;-146.27;77.47;81916.16;5029742;28;20048;-67
2023/10/08 09:15:25;;;;;;;10.68;3.28;;;;;;;-146.27;77.19;81894.06;5023438;28;20046;-67
2023/10/08 09:17:52;;;;;;;11.40;3.03;;;;;;;-146.27;77.15;81926.22;5028075;28;20017;-70
2023/10/08 09:20:19;;;;;;;11.50;3.20;;;;;;;-146.27;77.09;81928.22;5031784;28;20443;-68
2023/10/08 09:22:47;;;;;;;11.95;3.05;;;;;;;-146.27;77.05;81884.03;5025087;28;20458;-69
2023/10/08 09:25:22;;;;;;;11.73;3.20;;;;;;;-146.27;77.12;81857.91;5029146;28;20025;-69
2023/10/08 09:27:55;;;;;;;10.40;3.17;;;;;;;-146.27;76.73;81894.06;5016864;28;20025;-69
2023/10/08 09:30:21;;;;;;;7.82;3.10;;;;;;;-146.27;77.00;81825.78;5022978;28;20021;-70
2023/10/08 09:32:48;;;;;;;10.10;3.08;;;;;;;-146.27;77.10;81819.75;5031887;28;20171;-68
2023/10/08 09:35:15;;;;;;;12.50;3.15;;;;;;;-146.27;76.96;81853.91;5037477;28;20107;-70
2023/10/08 09:37:41;;;;;;;11.02;3.08;;;;;;;-146.27;77.01;81869.97;5036389;28;20032;-68
2023/10/08 09:40:11;;;;;;;14.75;3.80;;;;;;;-146.27;76.62;81841.84;5046709;28;20045;-69
2023/10/08 09:42:38;;;;;;;18.60;4.03;;;;;;;-146.27;76.60;81849.88;5024210;28;20417;-68
2023/10/08 09:45:06;;;;;;;14.10;3.95;;;;;;;-146.27;76.48;81845.88;5039192;28;20028;-68
2023/10/08 09:47:38;;;;;;;10.73;3.47;;;;;;;-146.27;77.07;81833.81;5026195;28;20112;-69
2023/10/08 09:50:08;;;;;;;10.73;3.35;;;;;;;-146.27;76.60;81825.78;5021027;28;20033;-67
2023/10/08 09:52:53;;;;;;;15.45;3.28;;;;;;;-146.27;76.44;81785.59;5031048;28;20103;-68
2023/10/08 09:55:20;;;;;;;11.98;3.35;;;;;;;-146.27;76.34;81745.44;5033291;28;20094;-67
2023/10/08 09:57:46;;;;;;;15.07;3.35;;;;;;;-146.27;76.32;81781.59;5032391;28;20033;-67
2023/10/08 10:00:15;;;;;;;20.58;4.03;;;;;;;-146.27;76.91;81831.81;5027927;28;20086;-66
2023/10/08 10:02:43;;;;;;;14.02;3.42;;;;;;;-146.27;76.65;81825.78;5023782;28;20036;-65
2023/10/08 10:05:12;;;;;;;18.73;3.30;;;;;;;-146.27;76.49;81797.66;5026893;28;20032;-66
2023/10/08 10:07:43;;;;;;;11.45;2.85;;;;;;;-146.27;76.91;81823.78;5029758;28;20504;-67
2023/10/08 10:10:38;;;;;;;11.57;3.30;;;;;;;-146.27;76.78;81791.63;5031293;28;20049;-66
2023/10/08 10:13:04;;;;;;;10.13;3.17;;;;;;;-146.27;77.18;81785.59;5022268;28;20336;-66
2023/10/08 10:15:34;;;;;;;10.73;3.10;;;;;;;-146.27;77.27;81761.50;5048131;28;20178;-67
2023/10/08 10:18:25;;;;;;;9.63;2.90;;;;;;;-146.27;76.16;81743.44;5038765;28;20075;-67
2023/10/08 10:20:57;;;;;;;11.85;3.55;;;;;;;-146.27;75.29;81695.22;5044069;28;20088;-67
2023/10/08 10:23:42;;;;;;;11.55;3.55;;;;;;;-146.27;74.91;81636.97;5045099;28;20032;-66
2023/10/08 10:26:30;;;;;;;12.77;4.00;;;;;;;-146.27;74.67;81693.22;5011416;28;20029;-66
2023/10/08 10:29:10;;;;;;;17.10;4.18;;;;;;;-146.27;75.18;81673.13;5034097;28;20428;-66
2023/10/08 10:31:44;;;;;;;12.25;4.28;;;;;;;-146.27;75.11;81665.09;5027658;28;20032;-67
2023/10/08 10:34:12;;;;;;;10.27;3.20;;;;;;;-146.27;75.62;81765.53;5044970;28;20024;-67
2023/10/08 10:36:39;;;;;;;13.10;3.97;;;;;;;-146.27;75.65;81671.13;5025401;28;20584;-67
2023/10/08 10:39:26;;;;;;;11.15;4.00;;;;;;;-146.27;75.61;81709.28;5030929;28;20104;-67
2023/10/08 10:41:57;;;;;;;17.23;3.60;;;;;;;-146.27;76.11;81705.28;5030520;28;20080;-66
2023/10/08 10:44:23;;;;;;;11.68;3.20;;;;;;;-146.27;76.12;81723.34;5024487;28;20064;-67
2023/10/08 10:47:00;;;;;;;9.30;3.75;;;;;;;-146.27;76.07;81685.19;5037314;28;20032;-67
2023/10/08 10:49:32;;;;;;;14.73;4.00;;;;;;;-146.27;75.81;81677.16;5042639;28;20021;-67
2023/10/08 10:52:04;;;;;;;8.00;4.03;;;;;;;-146.27;75.13;81649.03;5025240;28;20037;-67
2023/10/08 10:54:36;;;;;;;10.60;4.07;;;;;;;-146.27;75.16;81622.91;5014682;28;20475;-67
2023/10/08 10:57:17;;;;;;;15.80;4.28;;;;;;;-146.27;75.07;81641.00;5028485;28;20029;-69
2023/10/08 10:59:52;;;;;;;10.05;3.75;;;;;;;-146.27;75.25;81685.19;5028705;28;20112;-69
2023/10/08 11:02:30;;;;;;;11.50;3.85;;;;;;;-146.27;75.62;81681.16;5020091;28;20033;-70
2023/10/08 11:05:07;;;;;;;11.48;3.92;;;;;;;-146.27;75.04;81663.09;5013099;28;20228;-69
2023/10/08 11:07:34;;;;;;;8.02;3.75;;;;;;;-146.27;76.01;81645.00;5022177;28;20025;-69
2023/10/08 11:10:00;;;;;;;9.85;3.25;;;;;;;-146.27;75.99;81622.91;5024579;28;20029;-69
2023/10/08 11:12:42;;;;;;;10.80;4.28;;;;;;;-146.27;75.87;81536.56;5013833;28;20040;-70
2023/10/08 11:15:15;;;;;;;10.82;4.65;;;;;;;-146.27;75.21;81572.72;5022621;28;20053;-69
2023/10/08 11:17:41;;;;;;;17.42;4.65;;;;;;;-146.27;74.59;81564.69;5022802;28;20037;-69
2023/10/08 11:20:25;;;;;;;14.57;5.25;;;;;;;-146.27;73.89;81480.31;5034936;28;20056;-71
2023/10/08 11:22:53;;;;;;;9.35;4.80;;;;;;;-146.27;74.01;81526.53;5041224;28;20028;-74
2023/10/08 11:25:24;;;;;;;14.82;5.00;;;;;;;-146.27;73.56;81480.31;5037251;28;20056;-70
2023/10/08 11:27:58;;;;;;;15.32;4.53;;;;;;;-146.27;73.86;81474.31;5029163;28;20111;-70
2023/10/08 11:30:24;;;;;;;12.05;4.32;;;;;;;-146.27;73.39;81532.53;5028002;28;20037;-71
2023/10/08 11:32:50;;;;;;;15.48;4.60;;;;;;;-146.27;73.42;81478.31;5027832;28;20023;-70
2023/10/08 11:35:16;;;;;;;17.15;4.95;;;;;;;-146.27;73.53;81516.47;5027764;28;20039;-70
2023/10/08 11:37:50;;;;;;;13.27;4.65;;;;;;;-146.27;74.03;81520.50;5022133;28;20034;-70
2023/10/08 11:40:29;;;;;;;12.43;4.10;;;;;;;-146.27;73.75;81542.59;5017362;28;20033;-70
2023/10/08 11:42:59;;;;;;;12.20;4.88;;;;;;;-146.27;74.00;81464.25;5027770;28;20067;-70
2023/10/08 11:45:37;;;;;;;18.52;5.25;;;;;;;-146.27;73.94;81484.34;5030087;28;20108;-70
2023/10/08 11:48:11;;;;;;;13.38;4.65;;;;;;;-146.27;73.98;81460.25;5037309;28;20036;-70
2023/10/08 11:50:38;;;;;;;15.60;4.57;;;;;;;-146.27;73.62;81436.16;5042099;28;20024;-70
2023/10/08 11:53:05;;;;;;;13.38;4.55;;;;;;;-146.27;73.81;81482.34;5025076;28;20030;-70
2023/10/08 11:55:37;;;;;;;15.27;4.90;;;;;;;-146.27;73.55;81440.16;5019190;28;20029;-70
2023/10/08 11:58:17;;;;;;;10.30;4.32;;;;;;;-146.27;73.91;81424.09;5020879;28;20133;-72
2023/10/08 12:00:52;;;;;;;12.10;4.28;;;;;;;-146.27;73.40;81373.88;5040297;28;20053;-70
2023/10/08 12:03:19;;;;;;;12.77;4.93;;;;;;;-146.27;73.01;81329.72;5021376;28;20029;-72
2023/10/08 12:05:48;;;;;;;11.75;3.92;;;;;;;-146.27;72.83;81371.88;5029427;28;20115;-68
2023/10/08 12:08:20;;;;;;;16.98;4.55;;;;;;;-146.27;72.01;81263.44;5024619;28;20504;-67
2023/10/08 12:10:47;;;;;;;14.90;4.65;;;;;;;-146.27;71.42;81279.50;5038886;28;20108;-67
2023/10/08 12:13:16;;;;;;;11.85;3.75;;;;;;;-146.27;71.41;81211.22;5018089;28;20047;-67
2023/10/08 12:15:44;;;;;;;10.15;4.40;;;;;;;-146.27;71.72;81251.38;5043001;28;20424;-67
2023/10/08 12:18:25;;;;;;;12.10;3.83;;;;;;;-146.27;70.67;81136.91;5029913;28;20028;-67
2023/10/08 12:20:51;;;;;;;15.05;4.35;;;;;;;-146.27;70.04;81122.84;5018953;28;20036;-67
2023/10/08 12:23:26;;;;;;;11.75;4.03;;;;;;;-146.27;70.40;81112.81;5031649;28;20018;-67
2023/10/08 12:25:55;;;;;;;7.10;3.60;;;;;;;-146.27;69.72;81110.81;5025131;28;20487;-67
2023/10/08 12:28:25;;;;;;;12.20;4.32;;;;;;;-146.27;70.34;81082.69;5028221;28;20030;-67
2023/10/08 12:30:55;;;;;;;12.82;4.70;;;;;;;-146.27;69.21;81056.59;5015998;28;20158;-68
2023/10/08 12:33:24;;;;;;;12.82;4.68;;;;;;;-146.27;69.47;81046.53;5012396;28;20026;-68
2023/10/08 12:35:53;;;;;;;12.52;4.55;;;;;;;-146.27;69.46;81054.56;5018227;28;20040;-67